Time;durP1;ratioP1;P1;durP2;ratioP2;P2;SDS_P1;SDS_P2;PMS_P1;PMS_P2;Temp;Humidity;BMP_temperature;BMP_pressure;BME280_temperature;BME280_humidity;BME280_pressure;Samples;Min_cycle;Max_cycle;Signal;HPM_P1;HPM_P2
2022/04/11 04:37:00;;;;;;;7.82;4.82;;;5.20;99.90;;;;;;5084445;23;20047;-74
2022/04/11 04:39:27;;;;;;;7.68;5.55;;;5.30;99.90;;;;;;4932005;28;20077;-75
2022/04/11 04:47:04;;;;;;;6.50;4.57;;;5.40;99.90;;;;;;4976164;23;20054;-75
2022/04/11 04:49:32;;;;;;;7.97;4.70;;;5.50;99.90;;;;;;4953359;28;20019;-76
2022/04/11 04:52:06;;;;;;;7.53;4.45;;;5.50;99.90;;;;;;4951490;28;20591;-75
2022/04/11 04:54:35;;;;;;;7.60;4.47;;;5.50;99.90;;;;;;4953628;28;20423;-76
2022/04/11 04:57:02;;;;;;;6.28;3.90;;;5.50;99.90;;;;;;4933190;28;20050;-75
2022/04/11 04:59:30;;;;;;;5.90;4.03;;;5.60;99.90;;;;;;4937469;28;20039;-75
2022/04/11 05:01:57;;;;;;;7.55;4.15;;;5.70;99.90;;;;;;4951031;28;20025;-77
2022/04/11 05:04:23;;;;;;;5.30;3.67;;;5.70;99.90;;;;;;4933018;28;20026;-76
2022/04/11 05:06:49;;;;;;;6.13;3.70;;;5.80;99.50;;;;;;4956663;28;20055;-77
2022/04/11 05:09:16;;;;;;;7.15;3.70;;;5.90;99.10;;;;;;4931777;28;20025;-77
2022/04/11 05:11:41;;;;;;;4.55;3.05;;;6.10;98.60;;;;;;4936445;28;20050;-77
2022/04/11 05:14:07;;;;;;;5.60;3.77;;;6.40;98.60;;;;;;4938463;28;20523;-75
2022/04/11 05:16:37;;;;;;;5.70;3.28;;;8.30;96.40;;;;;;4939364;28;20368;-74
2022/04/11 05:19:04;;;;;;;5.70;3.00;;;10.70;91.00;;;;;;4958447;28;20077;-75
2022/04/11 05:21:30;;;;;;;4.60;3.10;;;12.70;81.50;;;;;;4933899;28;20031;-75
2022/04/11 05:23:56;;;;;;;4.40;2.67;;;13.40;72.90;;;;;;4956043;28;20023;-74
2022/04/11 05:26:22;;;;;;;5.50;2.93;;;12.90;72.50;;;;;;4952037;28;20029;-75
2022/04/11 05:28:50;;;;;;;4.70;3.13;;;12.40;72.20;;;;;;4940472;28;20031;-75
2022/04/11 05:31:18;;;;;;;4.82;3.13;;;11.90;73.40;;;;;;4955023;28;20022;-75
2022/04/11 05:33:44;;;;;;;5.18;3.20;;;11.40;74.60;;;;;;4937764;28;20022;-75
2022/04/11 05:36:10;;;;;;;3.95;3.08;;;11.70;74.10;;;;;;4934671;28;20054;-74
2022/04/11 05:38:37;;;;;;;4.03;2.70;;;11.40;73.20;;;;;;4949267;28;20488;-74
2022/04/11 05:41:05;;;;;;;3.25;2.55;;;10.90;74.70;;;;;;4939222;28;20027;-74
2022/04/11 05:43:31;;;;;;;3.38;2.42;;;10.80;75.00;;;;;;4963215;28;20106;-74
2022/04/11 05:46:02;;;;;;;;;;;11.00;75.00;;;;;;4946555;28;20030;-75
2022/04/11 05:48:32;;;;;;;2.22;2.03;;;11.50;72.20;;;;;;4949885;28;19914;-75
2022/04/11 05:50:59;;;;;;;2.83;2.20;;;11.30;72.10;;;;;;4945570;28;20086;-74
2022/04/11 05:53:29;;;;;;;3.60;1.75;;;11.60;71.50;;;;;;4953960;28;20026;-75
2022/04/11 05:55:57;;;;;;;2.20;1.90;;;11.90;69.60;;;;;;4955324;28;20015;-75
2022/04/11 05:58:25;;;;;;;4.53;2.25;;;13.00;67.30;;;;;;4947419;28;20026;-74
2022/04/11 06:00:51;;;;;;;4.05;1.73;;;13.00;65.20;;;;;;4956014;28;20015;-74
2022/04/11 06:03:18;;;;;;;4.57;2.27;;;12.50;65.40;;;;;;4950202;28;20118;-74
2022/04/11 06:05:45;;;;;;;4.47;2.30;;;12.20;66.70;;;;;;4948580;28;20094;-74
2022/04/11 06:08:12;;;;;;;4.03;1.88;;;11.70;67.20;;;;;;4954819;28;20492;-75
2022/04/11 06:10:38;;;;;;;;;;;11.40;68.00;;;;;;4952580;28;20055;-74
2022/04/11 06:13:04;;;;;;;4.90;2.42;;;12.60;67.50;;;;;;4976960;28;20069;-74
2022/04/11 06:15:29;;;;;;;3.03;2.20;;;14.50;63.00;;;;;;4944148;28;20102;-75
2022/04/11 06:17:56;;;;;;;4.20;1.93;;;14.70;60.00;;;;;;4950588;28;20624;-74
2022/04/11 06:20:23;;;;;;;5.38;2.35;;;14.10;59.90;;;;;;4951257;28;20031;-75
2022/04/11 06:22:48;;;;;;;5.40;2.28;;;14.50;60.90;;;;;;4955825;28;20069;-74
2022/04/11 06:25:15;;;;;;;3.30;2.03;;;16.30;57.40;;;;;;4951532;28;20062;-74
2022/04/11 06:27:42;;;;;;;3.80;1.60;;;17.90;52.80;;;;;;4950568;28;21477;-75
2022/04/11 06:30:09;;;;;;;1.73;1.55;;;19.50;48.90;;;;;;4956989;28;20031;-75
2022/04/11 06:32:34;;;;;;;4.80;2.05;;;20.60;45.90;;;;;;4978955;28;20070;-75
2022/04/11 06:35:00;;;;;;;;;;;22.10;42.00;;;;;;4954033;28;20501;-75
2022/04/11 06:37:27;;;;;;;3.83;1.73;;;22.70;40.00;;;;;;4963951;28;20404;-74
2022/04/11 06:39:55;;;;;;;2.60;1.48;;;23.00;38.60;;;;;;4952998;28;20026;-74
2022/04/11 06:42:21;;;;;;;3.13;1.52;;;24.00;36.80;;;;;;4954245;28;20126;-75
2022/04/11 06:44:48;;;;;;;4.32;1.63;;;24.50;36.00;;;;;;4951607;28;20027;-75
2022/04/11 06:47:17;;;;;;;3.85;1.80;;;25.30;34.70;;;;;;4956327;28;20499;-75
2022/04/11 06:49:43;;;;;;;2.70;1.65;;;25.60;35.00;;;;;;4950674;28;20117;-75
2022/04/11 06:52:11;;;;;;;2.40;1.60;;;25.50;33.90;;;;;;4954159;28;20114;-75
2022/04/11 06:54:36;;;;;;;2.78;1.73;;;25.90;33.10;;;;;;4949401;28;20140;-75
2022/04/11 06:57:02;;;;;;;4.93;1.50;;;25.90;32.70;;;;;;4955144;28;20066;-75
2022/04/11 06:59:28;;;;;;;2.75;1.83;;;25.60;32.60;;;;;;4952669;28;20031;-75
2022/04/11 07:01:54;;;;;;;3.25;1.63;;;24.70;33.30;;;;;;4953549;28;20022;-75
2022/04/11 07:04:20;;;;;;;2.63;1.70;;;24.10;33.90;;;;;;4956495;28;20050;-75
2022/04/11 07:06:47;;;;;;;2.17;1.50;;;23.70;34.20;;;;;;4953496;28;20094;-75
2022/04/11 07:09:19;;;;;;;2.38;1.60;;;24.40;33.90;;;;;;4957532;28;20027;-75
2022/04/11 07:11:45;;;;;;;2.85;1.80;;;25.00;32.60;;;;;;4950176;28;20149;-75
2022/04/11 07:14:13;;;;;;;2.13;1.42;;;25.30;32.70;;;;;;4962014;28;20664;-75
2022/04/11 07:16:42;;;;;;;3.05;1.55;;;25.70;31.90;;;;;;4961868;28;20029;-75
2022/04/11 07:19:09;;;;;;;4.80;1.85;;;25.30;31.80;;;;;;4938570;28;20035;-76
2022/04/11 07:21:37;;;;;;;2.33;1.48;;;24.70;32.20;;;;;;4958232;28;20532;-77
2022/04/11 07:24:03;;;;;;;3.00;1.63;;;24.20;33.20;;;;;;4959832;28;20058;-75
2022/04/11 07:26:30;;;;;;;3.92;2.03;;;25.00;32.70;;;;;;4959801;28;20057;-74
2022/04/11 07:28:55;;;;;;;2.85;1.40;;;24.50;32.70;;;;;;4953975;28;20048;-74
2022/04/11 07:31:21;;;;;;;3.67;1.50;;;25.00;32.20;;;;;;4940718;28;20031;-74
2022/04/11 07:33:49;;;;;;;1.60;1.50;;;24.60;32.00;;;;;;4953983;28;20034;-74
2022/04/11 07:36:15;;;;;;;3.17;1.85;;;24.70;32.00;;;;;;4957399;28;20030;-74
2022/04/11 07:38:41;;;;;;;3.78;1.50;;;25.20;31.70;;;;;;4955579;28;20030;-74
2022/04/11 07:41:07;;;;;;;3.17;1.73;;;25.50;31.40;;;;;;4959220;28;20019;-75
2022/04/11 07:43:34;;;;;;;3.17;1.67;;;26.10;31.50;;;;;;4942431;28;20097;-75
2022/04/11 07:46:03;;;;;;;3.63;1.85;;;26.70;30.30;;;;;;4958426;28;20409;-74
2022/04/11 07:48:30;;;;;;;3.63;1.40;;;25.90;31.00;;;;;;4955823;28;20020;-74
2022/04/11 07:50:58;;;;;;;4.30;1.90;;;26.40;31.30;;;;;;4972729;28;20026;-74
2022/04/11 07:53:24;;;;;;;3.47;1.83;;;27.30;30.30;;;;;;4957089;28;20019;-74
2022/04/11 07:55:50;;;;;;;2.75;1.75;;;27.90;30.10;;;;;;4950778;28;20027;-74
2022/04/11 07:58:18;;;;;;;3.17;1.45;;;27.40;29.60;;;;;;4953490;28;20170;-74
2022/04/11 08:00:51;;;;;;;1.85;1.40;;;26.40;29.80;;;;;;4952194;28;20105;-74
2022/04/11 08:03:28;;;;;;;1.13;0.90;;;25.50;30.40;;;;;;4957197;28;20015;-76
2022/04/11 08:05:56;;;;;;;4.20;1.50;;;26.00;29.30;;;;;;4951573;28;20022;-74
2022/04/11 08:08:24;;;;;;;2.53;1.40;;;26.40;30.00;;;;;;4956352;28;20023;-74
2022/04/11 08:10:50;;;;;;;3.25;1.30;;;26.20;29.70;;;;;;4953783;28;20046;-74
2022/04/11 08:13:15;;;;;;;5.20;1.35;;;25.80;29.50;;;;;;4952627;28;20047;-74
2022/04/11 08:15:41;;;;;;;1.65;1.10;;;25.30;29.80;;;;;;4952132;28;20027;-74
2022/04/11 08:18:07;;;;;;;2.78;1.05;;;25.60;28.80;;;;;;4954546;28;20018;-74
2022/04/11 08:20:34;;;;;;;1.80;1.00;;;25.70;28.80;;;;;;4958324;28;20039;-74
2022/04/11 08:23:01;;;;;;;1.90;0.85;;;26.20;28.90;;;;;;4955080;28;20558;-74
2022/04/11 08:25:26;;;;;;;4.75;1.27;;;27.00;27.10;;;;;;4956756;28;20031;-71
2022/04/11 08:27:52;;;;;;;2.55;1.23;;;27.00;27.90;;;;;;4951188;28;20073;-71
2022/04/11 08:30:18;;;;;;;2.53;1.00;;;26.40;28.40;;;;;;4954313;28;20142;-70
2022/04/11 08:32:49;;;;;;;3.45;1.42;;;26.80;28.70;;;;;;4948071;28;20493;-71
2022/04/11 08:35:15;;;;;;;1.70;1.10;;;27.10;28.20;;;;;;4952116;28;20018;-71
2022/04/11 08:37:42;;;;;;;2.60;1.17;;;26.80;27.90;;;;;;4946893;28;20173;-70
2022/04/11 08:40:11;;;;;;;1.70;1.00;;;26.20;28.20;;;;;;4951250;28;20043;-71
2022/04/11 08:42:39;;;;;;;2.80;1.20;;;27.10;28.30;;;;;;4947604;28;20027;-71
2022/04/11 08:45:05;;;;;;;2.33;1.20;;;27.20;27.60;;;;;;4956072;28;20109;-70
2022/04/11 08:47:31;;;;;;;2.47;1.10;;;26.80;27.40;;;;;;4954077;28;20031;-71
2022/04/11 08:49:59;;;;;;;2.30;1.00;;;25.70;28.10;;;;;;4951641;28;20031;-71
2022/04/11 08:52:26;;;;;;;2.00;1.20;;;25.00;28.70;;;;;;4939490;28;20086;-71
2022/04/11 08:54:52;;;;;;;3.78;1.30;;;25.60;28.80;;;;;;4932969;28;20027;-71
2022/04/11 08:57:17;;;;;;;2.22;0.98;;;25.90;28.30;;;;;;4919868;28;20045;-71
2022/04/11 08:59:44;;;;;;;3.00;1.40;;;25.90;28.30;;;;;;4931615;28;20059;-71
2022/04/11 09:02:10;;;;;;;1.75;1.08;;;25.50;28.50;;;;;;4938384;28;20023;-71
2022/04/11 09:04:56;;;;;;;2.72;1.15;;;26.20;28.60;;;;;;4937994;28;20027;-71
2022/04/11 09:07:23;;;;;;;2.67;1.15;;;25.70;28.40;;;;;;4937405;28;20115;-71
2022/04/11 09:09:49;;;;;;;1.75;1.17;;;26.20;26.90;;;;;;4915887;28;20027;-72
2022/04/11 09:12:17;;;;;;;2.35;1.30;;;26.00;27.70;;;;;;4937425;28;20150;-75
2022/04/11 09:14:51;;;;;;;1.92;1.00;;;26.70;28.20;;;;;;4933291;28;20035;-77
2022/04/11 09:17:17;;;;;;;3.75;1.20;;;26.20;27.50;;;;;;4942427;28;20595;-77
2022/04/11 09:19:46;;;;;;;1.58;1.05;;;26.20;27.50;;;;;;4911182;28;20027;-78
2022/04/11 09:22:11;;;;;;;2.63;0.80;;;25.70;27.30;;;;;;4941253;28;20031;-77
2022/04/11 09:24:40;;;;;;;1.85;0.95;;;24.90;27.70;;;;;;4915442;28;20510;-77
2022/04/11 09:27:06;;;;;;;1.55;1.05;;;25.10;28.10;;;;;;4919551;28;20023;-77
2022/04/11 09:29:33;;;;;;;3.15;1.10;;;24.90;28.10;;;;;;4921013;28;20046;-77
2022/04/11 09:32:04;;;;;;;2.80;1.10;;;25.40;28.00;;;;;;4917811;28;20334;-77
2022/04/11 09:34:32;;;;;;;1.67;1.00;;;25.30;27.90;;;;;;4939568;28;20031;-77
2022/04/11 09:37:01;;;;;;;4.60;1.05;;;24.80;28.10;;;;;;4915301;28;20054;-77
2022/04/11 09:39:36;;;;;;;2.08;0.93;;;24.10;28.40;;;;;;4918057;28;20027;-76
2022/04/11 09:42:05;;;;;;;3.05;1.23;;;24.60;28.20;;;;;;4935836;28;20050;-77
2022/04/11 09:44:33;;;;;;;3.15;1.00;;;24.60;28.00;;;;;;4917635;28;20547;-77
2022/04/11 09:47:01;;;;;;;2.70;1.10;;;25.00;28.10;;;;;;4936161;28;20541;-77
2022/04/11 09:49:31;;;;;;;2.05;1.25;;;25.40;28.10;;;;;;4938542;28;20019;-77
2022/04/11 09:52:12;;;;;;;3.17;1.30;;;24.80;28.40;;;;;;4936047;28;20672;-77
2022/04/11 09:54:52;;;;;;;2.15;1.25;;;24.80;28.40;;;;;;4935831;28;20019;-73
2022/04/11 09:57:19;;;;;;;1.95;0.98;;;24.30;28.40;;;;;;4940089;28;21189;-75
2022/04/11 09:59:46;;;;;;;2.22;1.30;;;24.90;28.20;;;;;;4934556;28;20030;-77
2022/04/11 10:02:17;;;;;;;1.40;1.05;;;24.30;28.50;;;;;;4936451;28;20031;-77
2022/04/11 10:04:46;;;;;;;2.42;0.98;;;24.40;28.50;;;;;;4939234;28;20028;-77
2022/04/11 10:07:12;;;;;;;2.03;1.10;;;23.70;29.00;;;;;;4936327;28;21468;-76
2022/04/11 10:09:42;;;;;;;3.33;1.40;;;20.40;30.70;;;;;;4937734;28;20604;-75
2022/04/11 10:12:09;;;;;;;3.20;1.23;;;17.80;33.70;;;;;;4939122;28;20072;-75
2022/04/11 10:14:37;;;;;;;2.55;1.08;;;17.00;34.70;;;;;;4935547;28;20023;-76
2022/04/11 10:17:06;;;;;;;3.15;1.08;;;16.40;34.80;;;;;;4932490;28;20042;-76
2022/04/11 10:19:38;;;;;;;2.38;0.85;;;15.90;35.50;;;;;;4934682;28;20023;-76
2022/04/11 10:22:12;;;;;;;2.47;0.77;;;16.10;36.40;;;;;;4939146;28;20091;-78
2022/04/11 10:25:04;;;;;;;1.75;0.80;;;17.00;34.80;;;;;;4932007;28;20031;-78
2022/04/11 10:27:33;;;;;;;2.13;1.10;;;17.30;33.10;;;;;;4936283;28;20254;-77
2022/04/11 10:30:03;;;;;;;3.05;1.10;;;17.50;33.00;;;;;;4934694;28;20023;-77
2022/04/11 10:32:30;;;;;;;2.10;1.20;;;18.30;32.70;;;;;;4935088;28;20030;-82
2022/04/11 10:35:09;;;;;;;2.08;1.30;;;18.70;32.80;;;;;;4940921;28;20106;-81
2022/04/11 10:37:51;;;;;;;1.30;1.20;;;18.80;33.30;;;;;;4925412;28;20067;-80
2022/04/11 10:40:20;;;;;;;1.92;1.10;;;19.30;32.40;;;;;;4931470;28;20024;-81
2022/04/11 10:43:01;;;;;;;3.92;1.00;;;19.90;31.70;;;;;;4943014;28;20020;-81
2022/04/11 10:45:35;;;;;;;1.73;1.00;;;20.50;30.90;;;;;;4936267;28;20038;-77
2022/04/11 10:48:04;;;;;;;2.30;0.95;;;19.20;31.20;;;;;;4945303;28;20043;-78
2022/04/11 10:50:37;;;;;;;2.15;1.38;;;18.70;31.80;;;;;;4943147;28;20583;-78
2022/04/11 10:53:25;;;;;;;1.33;1.00;;;18.20;32.70;;;;;;4958288;28;20037;-76
2022/04/11 10:55:58;;;;;;;1.58;0.80;;;17.70;33.30;;;;;;4983969;28;20034;-76
2022/04/11 10:58:50;;;;;;;1.40;0.80;;;17.00;33.50;;;;;;4953686;28;20023;-75
2022/04/11 11:01:42;;;;;;;3.05;1.00;;;17.10;34.20;;;;;;4955420;28;20027;-76
2022/04/11 11:04:20;;;;;;;1.80;1.05;;;17.10;33.90;;;;;;4952045;28;20046;-75
2022/04/11 11:07:24;;;;;;;3.13;1.20;;;17.10;33.30;;;;;;4956882;28;20024;-75
2022/04/11 11:09:56;;;;;;;1.45;0.90;;;16.40;34.00;;;;;;4985072;28;20113;-75
2022/04/11 11:12:23;;;;;;;1.52;1.00;;;16.50;34.90;;;;;;4950138;28;20054;-75
2022/04/11 11:14:49;;;;;;;1.58;0.90;;;16.00;35.20;;;;;;4957326;28;20054;-75
2022/04/11 11:17:14;;;;;;;2.40;0.97;;;16.10;35.80;;;;;;4952324;28;20604;-75
2022/04/11 11:20:01;;;;;;;1.50;0.87;;;16.20;34.80;;;;;;4955310;28;20078;-74
2022/04/11 11:22:26;;;;;;;1.50;0.75;;;16.00;34.70;;;;;;4982494;28;20038;-76
2022/04/11 11:25:15;;;;;;;1.87;1.03;;;15.40;35.30;;;;;;4956422;28;20015;-75
2022/04/11 11:27:41;;;;;;;1.02;0.93;;;14.90;36.10;;;;;;4957459;28;20344;-75
2022/04/11 11:30:11;;;;;;;2.45;0.90;;;14.70;36.90;;;;;;4954803;28;20154;-76
2022/04/11 11:32:40;;;;;;;1.98;0.90;;;14.90;37.90;;;;;;4953218;28;20110;-77
2022/04/11 11:35:09;;;;;;;2.22;0.88;;;15.20;35.80;;;;;;4960775;28;20090;-74
2022/04/11 11:37:38;;;;;;;3.53;0.70;;;15.10;36.20;;;;;;4952717;28;20109;-75
2022/04/11 11:40:11;;;;;;;1.33;1.10;;;14.80;36.40;;;;;;4955130;28;20082;-76
2022/04/11 11:42:38;;;;;;;1.17;0.80;;;14.70;36.90;;;;;;4948996;28;20015;-75
2022/04/11 11:45:06;;;;;;;2.90;1.10;;;14.80;36.50;;;;;;4956149;28;20019;-75
2022/04/11 11:47:33;;;;;;;2.75;1.08;;;15.10;36.20;;;;;;4953810;28;20094;-75
2022/04/11 11:50:07;;;;;;;1.92;1.05;;;15.00;36.60;;;;;;4958436;28;20027;-75
2022/04/11 11:52:56;;;;;;;1.58;0.85;;;15.20;36.40;;;;;;4951556;28;20604;-75
2022/04/11 11:55:22;;;;;;;2.28;1.05;;;15.30;36.30;;;;;;4951496;28;20389;-75
2022/04/11 11:58:02;;;;;;;2.90;0.90;;;15.50;37.20;;;;;;4953921;28;20261;-75
2022/04/11 12:00:33;;;;;;;3.60;0.98;;;15.50;35.70;;;;;;4937491;28;20101;-75
2022/04/11 12:05:55;;;;;;;1.65;1.15;;;15.50;36.60;;;;;;4957029;28;20110;-75
2022/04/11 12:08:30;;;;;;;3.45;1.40;;;15.70;35.80;;;;;;4949932;28;20038;-76
2022/04/11 12:10:59;;;;;;;1.33;1.00;;;15.70;35.20;;;;;;4953850;28;20396;-75
2022/04/11 12:13:32;;;;;;;1.98;1.02;;;15.30;35.20;;;;;;4933159;28;20644;-75
2022/04/11 12:16:17;;;;;;;4.38;1.30;;;15.20;35.40;;;;;;4957933;28;20026;-75
2022/04/11 12:18:54;;;;;;;2.55;1.00;;;15.10;35.50;;;;;;4940691;28;20089;-75
2022/04/11 12:21:41;;;;;;;2.35;1.30;;;15.10;35.50;;;;;;4951604;28;20024;-75
2022/04/11 12:24:11;;;;;;;1.33;0.80;;;15.20;35.50;;;;;;4958981;28;20019;-76
2022/04/11 12:26:38;;;;;;;4.72;2.10;;;15.20;36.80;;;;;;4952568;28;20782;-76
2022/04/11 12:29:19;;;;;;;2.03;0.95;;;15.30;36.00;;;;;;4956762;28;20066;-76
2022/04/11 12:32:03;;;;;;;1.45;1.00;;;15.10;36.70;;;;;;4957442;28;20109;-75
2022/04/11 12:34:37;;;;;;;1.05;0.90;;;15.30;37.20;;;;;;4933550;28;20030;-75
2022/04/11 12:37:08;;;;;;;1.02;0.80;;;15.40;35.60;;;;;;4942136;28;20031;-75
2022/04/11 12:39:53;;;;;;;3.28;1.00;;;15.70;35.40;;;;;;4934461;28;20564;-75
2022/04/11 12:42:22;;;;;;;3.55;1.10;;;15.90;34.70;;;;;;4953443;28;20030;-77
2022/04/11 12:45:04;;;;;;;1.75;0.90;;;15.90;34.30;;;;;;4965036;28;21388;-76
2022/04/11 12:47:31;;;;;;;1.73;1.20;;;15.90;34.60;;;;;;4951945;28;20018;-76
2022/04/11 12:49:58;;;;;;;4.20;1.40;;;16.00;34.40;;;;;;4957619;28;20030;-76
2022/04/11 12:52:44;;;;;;;3.47;1.23;;;15.90;35.60;;;;;;4952252;28;20093;-75
2022/04/11 12:55:14;;;;;;;2.60;1.50;;;15.80;36.60;;;;;;4938413;28;20542;-75
2022/04/11 12:57:40;;;;;;;3.55;1.60;;;15.50;36.30;;;;;;4949400;28;20077;-75
2022/04/11 13:00:16;;;;;;;3.53;1.58;;;15.20;36.60;;;;;;4955851;28;20027;-75
2022/04/11 13:02:52;;;;;;;1.98;1.27;;;14.90;36.60;;;;;;4955577;28;20662;-75
2022/04/11 13:05:20;;;;;;;2.28;1.33;;;14.90;36.30;;;;;;4951862;28;20047;-75
2022/04/11 13:07:54;;;;;;;2.63;1.20;;;14.80;37.00;;;;;;4952455;28;20468;-75
2022/04/11 13:10:21;;;;;;;2.88;1.27;;;14.40;37.60;;;;;;4950081;28;20304;-75
2022/04/11 13:12:54;;;;;;;2.13;1.45;;;14.10;38.20;;;;;;4933998;28;20034;-75
2022/04/11 13:15:23;;;;;;;4.65;1.30;;;14.00;38.00;;;;;;4949909;28;20025;-76
2022/04/11 13:20:40;;;;;;;4.53;1.58;;;14.50;37.30;;;;;;4947411;28;20477;-75
2022/04/11 13:23:08;;;;;;;2.85;1.30;;;14.60;37.50;;;;;;4967318;28;20093;-75
2022/04/11 13:25:36;;;;;;;3.45;1.42;;;14.70;37.60;;;;;;4951572;28;20034;-74
2022/04/11 13:28:04;;;;;;;1.88;1.40;;;14.30;38.60;;;;;;4954976;28;20515;-75
2022/04/11 13:30:33;;;;;;;1.98;1.42;;;13.70;37.60;;;;;;4929164;28;20500;-74
2022/04/11 13:33:02;;;;;;;4.78;2.28;;;13.50;38.60;;;;;;4954948;28;20103;-75
2022/04/11 13:35:30;;;;;;;2.53;1.40;;;13.60;38.70;;;;;;4952408;28;20098;-75
2022/04/11 13:37:56;;;;;;;4.28;2.20;;;13.80;38.50;;;;;;4960533;28;20581;-75
2022/04/11 13:40:23;;;;;;;;;;;13.90;38.70;;;;;;4947113;28;20027;-75
2022/04/11 13:42:59;;;;;;;3.72;1.30;;;13.90;39.20;;;;;;4963342;28;20371;-75
2022/04/11 13:45:25;;;;;;;3.08;1.17;;;14.00;38.30;;;;;;4946434;28;20035;-75
2022/04/11 13:47:55;;;;;;;;;;;13.90;38.20;;;;;;4933726;28;20023;-75
2022/04/11 13:50:22;;;;;;;2.08;1.55;;;13.80;38.50;;;;;;4925576;28;19910;-76
2022/04/11 13:52:48;;;;;;;2.53;1.30;;;13.70;38.40;;;;;;4948016;28;20042;-76
2022/04/11 13:55:14;;;;;;;2.33;1.50;;;13.80;38.20;;;;;;4933748;28;20026;-74
2022/04/11 13:57:41;;;;;;;3.57;1.50;;;13.90;38.60;;;;;;4944967;28;20066;-74
2022/04/11 14:00:06;;;;;;;;;;;13.90;38.20;;;;;;4952888;28;20038;-75
2022/04/11 14:02:34;;;;;;;3.25;1.23;;;14.10;38.10;;;;;;4950717;28;19913;-74
2022/04/11 14:05:01;;;;;;;3.28;1.30;;;14.30;37.80;;;;;;4950876;28;20050;-75
2022/04/11 14:07:27;;;;;;;;;;;13.80;37.90;;;;;;4928463;28;20027;-76
2022/04/11 14:09:53;;;;;;;2.30;1.40;;;13.80;38.60;;;;;;4935217;28;19906;-76
2022/04/11 14:12:20;;;;;;;2.35;1.65;;;13.70;38.00;;;;;;4955265;28;20590;-76
2022/04/11 14:14:47;;;;;;;;;;;13.90;38.30;;;;;;4960486;28;20027;-76
2022/04/11 14:17:14;;;;;;;2.33;1.40;;;13.70;37.90;;;;;;4955484;28;20009;-75
2022/04/11 14:19:43;;;;;;;;;;;13.20;38.30;;;;;;4933961;28;20758;-75
2022/04/11 14:22:14;;;;;;;1.98;1.08;;;13.20;38.40;;;;;;4965747;28;20319;-75
2022/04/11 14:24:43;;;;;;;6.65;1.80;;;12.90;38.80;;;;;;4938051;28;20023;-75
2022/04/11 14:27:11;;;;;;;3.67;1.35;;;12.80;39.00;;;;;;4942210;28;20023;-75
2022/04/11 14:29:38;;;;;;;5.15;1.63;;;12.90;39.30;;;;;;4936050;28;20641;-75
2022/04/11 14:32:07;;;;;;;3.30;1.60;;;13.20;39.20;;;;;;4957748;28;20027;-76
2022/04/11 14:34:33;;;;;;;6.00;1.45;;;13.40;38.30;;;;;;4954733;28;20029;-75
2022/04/11 14:36:59;;;;;;;;;;;13.70;38.00;;;;;;4968258;28;20122;-76
2022/04/11 14:39:26;;;;;;;2.75;1.08;;;13.90;38.10;;;;;;4951930;28;20316;-77
2022/04/11 14:41:53;;;;;;;2.13;1.30;;;13.70;37.70;;;;;;4935313;28;20089;-75
2022/04/11 14:44:18;;;;;;;3.35;1.92;;;13.90;37.60;;;;;;4939152;28;20081;-76
2022/04/11 14:46:45;;;;;;;4.67;1.37;;;14.00;37.90;;;;;;4952598;28;20468;-75
2022/04/11 14:49:13;;;;;;;3.40;1.50;;;14.00;38.20;;;;;;4938676;28;20342;-75
2022/04/11 14:51:38;;;;;;;2.95;1.20;;;14.00;37.30;;;;;;4955619;28;20046;-76
2022/04/11 14:54:07;;;;;;;2.13;1.87;;;14.00;37.50;;;;;;4939980;28;20027;-74
2022/04/11 14:56:37;;;;;;;2.10;1.20;;;13.70;37.40;;;;;;4934466;28;20459;-76
2022/04/11 14:59:06;;;;;;;2.53;1.50;;;13.60;38.70;;;;;;4938446;28;20034;-76
2022/04/11 15:01:39;;;;;;;2.65;1.55;;;13.50;38.20;;;;;;4930795;28;20039;-76
2022/04/11 15:04:09;;;;;;;1.30;1.20;;;13.50;39.70;;;;;;4939423;28;20023;-76
2022/04/11 15:06:37;;;;;;;2.50;1.60;;;13.30;39.10;;;;;;4929934;28;20023;-75
2022/04/11 15:09:06;;;;;;;3.67;1.30;;;13.20;39.30;;;;;;4955293;28;20023;-75
2022/04/11 15:11:31;;;;;;;1.83;1.27;;;13.10;39.40;;;;;;4960912;28;20500;-75
2022/04/11 15:14:06;;;;;;;4.10;1.53;;;13.10;39.60;;;;;;4938883;28;20035;-75
2022/04/11 15:16:35;;;;;;;3.42;1.40;;;12.90;39.00;;;;;;4937208;28;20027;-76
2022/04/11 15:19:09;;;;;;;2.30;1.50;;;12.80;39.40;;;;;;4956150;28;20037;-79
2022/04/11 15:21:38;;;;;;;2.78;1.60;;;12.80;39.10;;;;;;4953902;28;20029;-75
2022/04/11 15:24:06;;;;;;;2.78;1.50;;;12.80;39.10;;;;;;4939100;28;20026;-74
2022/04/11 15:26:34;;;;;;;3.13;1.50;;;12.90;40.60;;;;;;4939595;28;20023;-75
2022/04/11 15:29:14;;;;;;;2.33;1.70;;;12.80;40.10;;;;;;4955590;28;20054;-76
2022/04/11 15:31:42;;;;;;;3.40;1.80;;;12.60;40.30;;;;;;4961584;28;20053;-76
2022/04/11 15:34:17;;;;;;;2.78;1.67;;;12.60;40.20;;;;;;4954976;28;20022;-76
2022/04/11 15:36:42;;;;;;;5.68;1.90;;;12.50;40.10;;;;;;4936123;28;20084;-76
2022/04/11 15:39:08;;;;;;;3.27;2.53;;;12.40;41.10;;;;;;4958240;28;20035;-73
2022/04/11 15:41:36;;;;;;;4.83;1.80;;;12.20;40.30;;;;;;4936426;28;20034;-69
2022/04/11 15:44:03;;;;;;;1.77;1.50;;;12.30;41.70;;;;;;4950138;28;20422;-69
2022/04/11 15:46:29;;;;;;;2.88;1.70;;;12.30;40.80;;;;;;4949745;28;20492;-67
2022/04/11 15:48:57;;;;;;;2.08;1.20;;;12.20;40.60;;;;;;4952960;28;20082;-74
2022/04/11 15:51:23;;;;;;;2.47;1.52;;;12.00;41.00;;;;;;4946149;28;20102;-69
2022/04/11 15:53:49;;;;;;;2.10;1.10;;;12.20;41.50;;;;;;4933854;28;20358;-70
2022/04/11 15:56:15;;;;;;;6.45;1.55;;;12.30;41.90;;;;;;4933206;28;20027;-69
2022/04/11 15:58:41;;;;;;;3.87;1.30;;;12.40;41.10;;;;;;4950213;28;20644;-72
2022/04/11 16:01:08;;;;;;;3.60;1.70;;;12.50;41.20;;;;;;4952162;28;20120;-70
2022/04/11 16:03:35;;;;;;;;;;;12.50;40.20;;;;;;4950643;28;20901;-70
2022/04/11 16:06:01;;;;;;;3.08;1.50;;;12.40;41.00;;;;;;4948299;28;20034;-70
2022/04/11 16:08:27;;;;;;;6.80;2.17;;;12.40;41.20;;;;;;4947691;28;20030;-70
2022/04/11 16:10:55;;;;;;;2.80;1.73;;;12.40;41.30;;;;;;4953482;28;20833;-73
2022/04/11 16:13:22;;;;;;;2.17;1.33;;;12.40;41.60;;;;;;4938623;28;20092;-72
2022/04/11 16:15:54;;;;;;;4.43;2.17;;;12.10;40.90;;;;;;4930770;28;20594;-72
2022/04/11 16:18:20;;;;;;;6.05;1.42;;;12.10;41.30;;;;;;4954033;28;20826;-73
2022/04/11 16:20:52;;;;;;;;;;;11.90;41.00;;;;;;4935105;28;20027;-72
2022/04/11 16:23:19;;;;;;;4.30;2.08;;;11.90;41.40;;;;;;4951063;28;19968;-71
2022/04/11 16:25:45;;;;;;;3.58;1.70;;;11.70;41.30;;;;;;4947481;28;20238;-71
2022/04/11 16:28:11;;;;;;;7.50;1.80;;;11.70;41.60;;;;;;4939253;28;20035;-71
2022/04/11 16:30:42;;;;;;;2.03;1.47;;;11.50;42.00;;;;;;4946232;28;20083;-74
2022/04/11 16:33:07;;;;;;;3.50;1.40;;;11.30;41.70;;;;;;4952362;28;20073;-73
2022/04/11 16:35:35;;;;;;;3.37;1.30;;;11.30;42.00;;;;;;4948334;28;20829;-76
2022/04/11 16:38:01;;;;;;;5.15;1.65;;;11.30;42.20;;;;;;4952765;28;20030;-73
2022/04/11 16:40:32;;;;;;;1.10;1.00;;;11.20;41.90;;;;;;4948776;28;20027;-73
2022/04/11 16:42:57;;;;;;;3.83;1.52;;;11.30;42.30;;;;;;4953208;28;20027;-73
2022/04/11 16:45:23;;;;;;;1.43;1.17;;;11.30;42.00;;;;;;4950813;28;20953;-77
2022/04/11 16:47:50;;;;;;;1.73;0.97;;;11.20;41.80;;;;;;4949180;28;20030;-78
2022/04/11 16:50:16;;;;;;;2.83;1.45;;;11.00;41.70;;;;;;4952037;28;20027;-80
2022/04/11 16:52:42;;;;;;;1.33;1.07;;;11.10;41.90;;;;;;4948958;28;20046;-75
2022/04/11 16:55:09;;;;;;;2.17;1.23;;;11.00;42.60;;;;;;4936637;28;20567;-80
2022/04/11 16:57:35;;;;;;;2.20;1.30;;;11.00;41.90;;;;;;4947465;28;20027;-75
2022/04/11 17:00:05;;;;;;;4.17;1.77;;;10.90;41.90;;;;;;4951676;28;20042;-76
2022/04/11 17:02:31;;;;;;;4.15;1.40;;;10.90;41.70;;;;;;4933264;28;20025;-79
2022/04/11 17:04:57;;;;;;;5.77;3.40;;;10.90;42.00;;;;;;4952141;28;20023;-75
2022/04/11 17:07:23;;;;;;;;;;;10.80;42.50;;;;;;4933482;28;20650;-75
2022/04/11 17:09:52;;;;;;;10.05;4.80;;;10.70;41.50;;;;;;4950682;28;20002;-72
2022/04/11 17:12:17;;;;;;;6.10;3.50;;;10.60;41.30;;;;;;4946994;28;20030;-71
2022/04/11 17:14:43;;;;;;;4.77;2.60;;;10.60;41.30;;;;;;4947191;28;20619;-71
2022/04/11 17:19:56;;;;;;;7.70;1.90;;;10.50;41.80;;;;;;4954238;28;20527;-71
2022/04/11 17:22:22;;;;;;;2.30;1.10;;;10.50;42.00;;;;;;4955804;28;20067;-71
2022/04/11 17:24:48;;;;;;;4.40;2.23;;;10.50;41.90;;;;;;4952443;28;20573;-72
2022/04/11 17:27:17;;;;;;;3.07;1.70;;;10.40;41.80;;;;;;4935428;28;20034;-71
2022/04/11 17:29:43;;;;;;;1.83;1.50;;;10.40;41.80;;;;;;4931486;28;20502;-71
2022/04/11 17:32:09;;;;;;;2.30;1.67;;;10.30;41.80;;;;;;4951064;28;20035;-72
2022/04/11 17:34:34;;;;;;;3.20;1.53;;;10.30;42.10;;;;;;4952316;28;20503;-73
2022/04/11 17:37:06;;;;;;;2.10;1.63;;;10.30;42.20;;;;;;4952778;28;20046;-77
2022/04/11 17:39:32;;;;;;;2.33;1.80;;;10.20;42.30;;;;;;4950597;28;20055;-71
2022/04/11 17:41:58;;;;;;;2.88;1.90;;;10.10;42.50;;;;;;4953163;28;20119;-72
2022/04/11 17:44:25;;;;;;;2.35;1.70;;;10.10;43.20;;;;;;4949778;28;20119;-78
2022/04/11 17:46:54;;;;;;;2.58;2.03;;;10.20;43.10;;;;;;4956143;28;20097;-78
2022/04/11 17:49:20;;;;;;;3.80;1.83;;;10.20;43.80;;;;;;4948418;28;20444;-77